sensor_id;sensor_type;location;lat;lon;timestamp;P1;durP1;ratioP1;P2;durP2;ratioP2
19675;SDS011;39539;52.202;9.876;2023-04-28T00:02:26;4.55;;;3.80;;
19675;SDS011;39539;52.202;9.876;2023-04-28T00:04:51;5.05;;;3.40;;
19675;SDS011;39539;52.202;9.876;2023-04-28T00:07:17;3.83;;;2.97;;
19675;SDS011;39539;52.202;9.876;2023-04-28T00:09:42;4.13;;;3.83;;
19675;SDS011;39539;52.202;9.876;2023-04-28T00:12:07;4.93;;;3.15;;
19675;SDS011;39539;52.202;9.876;2023-04-28T00:14:33;4.55;;;3.03;;
19675;SDS011;39539;52.202;9.876;2023-04-28T00:16:58;3.40;;;2.92;;
19675;SDS011;39539;52.202;9.876;2023-04-28T00:19:23;3.03;;;2.75;;
19675;SDS011;39539;52.202;9.876;2023-04-28T00:21:49;3.55;;;2.67;;
19675;SDS011;39539;52.202;9.876;2023-04-28T00:24:14;4.50;;;2.72;;
19675;SDS011;39539;52.202;9.876;2023-04-28T00:26:40;3.72;;;2.67;;
19675;SDS011;39539;52.202;9.876;2023-04-28T00:29:05;5.38;;;3.05;;
19675;SDS011;39539;52.202;9.876;2023-04-28T00:31:30;5.10;;;3.10;;
19675;SDS011;39539;52.202;9.876;2023-04-28T00:33:56;4.13;;;3.13;;
19675;SDS011;39539;52.202;9.876;2023-04-28T00:36:21;4.25;;;3.28;;
19675;SDS011;39539;52.202;9.876;2023-04-28T00:38:47;3.38;;;2.97;;
19675;SDS011;39539;52.202;9.876;2023-04-28T00:41:12;4.75;;;4.35;;
19675;SDS011;39539;52.202;9.876;2023-04-28T00:43:48;4.05;;;3.65;;
19675;SDS011;39539;52.202;9.876;2023-04-28T00:46:21;5.22;;;3.63;;
19675;SDS011;39539;52.202;9.876;2023-04-28T00:48:48;4.53;;;4.13;;
19675;SDS011;39539;52.202;9.876;2023-04-28T00:51:14;4.63;;;4.20;;
19675;SDS011;39539;52.202;9.876;2023-04-28T00:53:40;4.78;;;4.22;;
19675;SDS011;39539;52.202;9.876;2023-04-28T00:56:06;5.90;;;4.22;;
19675;SDS011;39539;52.202;9.876;2023-04-28T00:58:32;4.75;;;4.00;;
19675;SDS011;39539;52.202;9.876;2023-04-28T01:01:02;5.18;;;3.50;;
19675;SDS011;39539;52.202;9.876;2023-04-28T01:03:33;3.83;;;3.53;;
19675;SDS011;39539;52.202;9.876;2023-04-28T01:06:02;5.45;;;3.53;;
19675;SDS011;39539;52.202;9.876;2023-04-28T01:08:29;3.75;;;3.30;;
19675;SDS011;39539;52.202;9.876;2023-04-28T01:10:55;4.50;;;3.33;;
19675;SDS011;39539;52.202;9.876;2023-04-28T01:13:21;4.32;;;3.58;;
19675;SDS011;39539;52.202;9.876;2023-04-28T01:15:47;4.18;;;3.42;;
19675;SDS011;39539;52.202;9.876;2023-04-28T01:18:13;3.22;;;2.90;;
19675;SDS011;39539;52.202;9.876;2023-04-28T01:20:40;3.92;;;3.00;;
19675;SDS011;39539;52.202;9.876;2023-04-28T01:23:10;5.70;;;3.47;;
19675;SDS011;39539;52.202;9.876;2023-04-28T01:25:39;5.57;;;3.50;;
19675;SDS011;39539;52.202;9.876;2023-04-28T01:28:05;3.90;;;3.50;;
19675;SDS011;39539;52.202;9.876;2023-04-28T01:30:30;4.57;;;4.13;;
19675;SDS011;39539;52.202;9.876;2023-04-28T01:32:56;3.83;;;3.28;;
19675;SDS011;39539;52.202;9.876;2023-04-28T01:35:22;4.72;;;4.15;;
19675;SDS011;39539;52.202;9.876;2023-04-28T01:37:47;6.25;;;4.15;;
19675;SDS011;39539;52.202;9.876;2023-04-28T01:40:13;6.43;;;3.78;;
19675;SDS011;39539;52.202;9.876;2023-04-28T01:42:38;4.72;;;4.32;;
19675;SDS011;39539;52.202;9.876;2023-04-28T01:45:04;4.55;;;3.78;;
19675;SDS011;39539;52.202;9.876;2023-04-28T01:47:30;4.70;;;4.00;;
19675;SDS011;39539;52.202;9.876;2023-04-28T01:49:55;4.63;;;4.15;;
19675;SDS011;39539;52.202;9.876;2023-04-28T01:52:21;4.68;;;4.28;;
19675;SDS011;39539;52.202;9.876;2023-04-28T01:54:48;4.13;;;3.83;;
19675;SDS011;39539;52.202;9.876;2023-04-28T01:57:13;4.45;;;4.05;;
19675;SDS011;39539;52.202;9.876;2023-04-28T01:59:39;4.95;;;4.40;;
19675;SDS011;39539;52.202;9.876;2023-04-28T02:02:05;4.47;;;4.05;;
19675;SDS011;39539;52.202;9.876;2023-04-28T02:04:30;6.90;;;3.70;;
19675;SDS011;39539;52.202;9.876;2023-04-28T02:06:55;5.03;;;3.90;;
19675;SDS011;39539;52.202;9.876;2023-04-28T02:09:21;4.50;;;3.88;;
19675;SDS011;39539;52.202;9.876;2023-04-28T02:11:46;5.05;;;4.55;;
19675;SDS011;39539;52.202;9.876;2023-04-28T02:14:12;4.60;;;3.53;;
19675;SDS011;39539;52.202;9.876;2023-04-28T02:16:37;4.75;;;4.30;;
19675;SDS011;39539;52.202;9.876;2023-04-28T02:19:02;4.70;;;4.20;;
19675;SDS011;39539;52.202;9.876;2023-04-28T02:21:27;4.70;;;4.10;;
19675;SDS011;39539;52.202;9.876;2023-04-28T02:23:53;4.10;;;3.70;;
19675;SDS011;39539;52.202;9.876;2023-04-28T02:26:18;5.25;;;4.07;;
19675;SDS011;39539;52.202;9.876;2023-04-28T02:28:43;5.43;;;4.50;;
19675;SDS011;39539;52.202;9.876;2023-04-28T02:31:09;5.88;;;4.97;;
19675;SDS011;39539;52.202;9.876;2023-04-28T02:33:35;6.32;;;4.72;;
19675;SDS011;39539;52.202;9.876;2023-04-28T02:36:02;5.25;;;4.35;;
19675;SDS011;39539;52.202;9.876;2023-04-28T02:38:28;5.95;;;3.88;;
19675;SDS011;39539;52.202;9.876;2023-04-28T02:40:57;4.53;;;4.10;;
19675;SDS011;39539;52.202;9.876;2023-04-28T02:43:23;4.75;;;4.00;;
19675;SDS011;39539;52.202;9.876;2023-04-28T02:45:49;5.57;;;4.72;;
19675;SDS011;39539;52.202;9.876;2023-04-28T02:48:14;5.40;;;4.30;;
19675;SDS011;39539;52.202;9.876;2023-04-28T02:50:40;6.82;;;4.50;;
19675;SDS011;39539;52.202;9.876;2023-04-28T02:53:05;5.20;;;4.32;;
19675;SDS011;39539;52.202;9.876;2023-04-28T02:55:30;7.53;;;5.00;;
19675;SDS011;39539;52.202;9.876;2023-04-28T02:57:56;5.65;;;4.57;;
19675;SDS011;39539;52.202;9.876;2023-04-28T03:00:21;5.50;;;4.63;;
19675;SDS011;39539;52.202;9.876;2023-04-28T03:02:46;7.47;;;4.47;;
19675;SDS011;39539;52.202;9.876;2023-04-28T03:05:12;4.57;;;4.05;;
19675;SDS011;39539;52.202;9.876;2023-04-28T03:07:37;4.80;;;4.40;;
19675;SDS011;39539;52.202;9.876;2023-04-28T03:10:03;5.07;;;4.65;;
19675;SDS011;39539;52.202;9.876;2023-04-28T03:12:28;5.78;;;4.53;;
19675;SDS011;39539;52.202;9.876;2023-04-28T03:14:54;4.85;;;4.28;;
19675;SDS011;39539;52.202;9.876;2023-04-28T03:17:19;6.22;;;4.18;;
19675;SDS011;39539;52.202;9.876;2023-04-28T03:19:45;4.82;;;3.88;;
19675;SDS011;39539;52.202;9.876;2023-04-28T03:22:10;5.45;;;4.30;;
19675;SDS011;39539;52.202;9.876;2023-04-28T03:24:35;5.63;;;4.88;;
19675;SDS011;39539;52.202;9.876;2023-04-28T03:27:01;6.18;;;4.60;;
19675;SDS011;39539;52.202;9.876;2023-04-28T03:29:27;5.03;;;4.50;;
19675;SDS011;39539;52.202;9.876;2023-04-28T03:31:53;5.47;;;4.18;;
19675;SDS011;39539;52.202;9.876;2023-04-28T03:34:18;4.93;;;4.30;;
19675;SDS011;39539;52.202;9.876;2023-04-28T03:36:43;5.60;;;4.03;;
19675;SDS011;39539;52.202;9.876;2023-04-28T03:39:09;5.32;;;3.78;;
19675;SDS011;39539;52.202;9.876;2023-04-28T03:41:34;8.57;;;4.15;;
19675;SDS011;39539;52.202;9.876;2023-04-28T03:44:00;5.50;;;4.28;;
19675;SDS011;39539;52.202;9.876;2023-04-28T03:46:25;5.35;;;3.90;;
19675;SDS011;39539;52.202;9.876;2023-04-28T03:48:51;5.90;;;4.55;;
19675;SDS011;39539;52.202;9.876;2023-04-28T03:51:17;5.72;;;4.05;;
19675;SDS011;39539;52.202;9.876;2023-04-28T03:53:42;6.15;;;4.13;;
19675;SDS011;39539;52.202;9.876;2023-04-28T03:56:08;4.95;;;4.13;;
19675;SDS011;39539;52.202;9.876;2023-04-28T03:58:33;5.43;;;4.05;;
19675;SDS011;39539;52.202;9.876;2023-04-28T04:00:59;5.47;;;4.30;;
19675;SDS011;39539;52.202;9.876;2023-04-28T04:03:24;5.43;;;4.15;;
19675;SDS011;39539;52.202;9.876;2023-04-28T04:05:51;11.40;;;4.65;;
19675;SDS011;39539;52.202;9.876;2023-04-28T04:08:17;4.97;;;4.35;;
19675;SDS011;39539;52.202;9.876;2023-04-28T04:10:43;8.70;;;4.97;;
19675;SDS011;39539;52.202;9.876;2023-04-28T04:13:08;4.78;;;4.03;;
19675;SDS011;39539;52.202;9.876;2023-04-28T04:15:34;4.55;;;4.15;;
19675;SDS011;39539;52.202;9.876;2023-04-28T04:17:59;4.50;;;4.07;;
19675;SDS011;39539;52.202;9.876;2023-04-28T04:20:25;4.28;;;3.67;;
19675;SDS011;39539;52.202;9.876;2023-04-28T04:22:50;5.50;;;4.25;;
19675;SDS011;39539;52.202;9.876;2023-04-28T04:25:16;4.70;;;4.30;;
19675;SDS011;39539;52.202;9.876;2023-04-28T04:27:41;4.68;;;4.00;;
19675;SDS011;39539;52.202;9.876;2023-04-28T04:30:06;8.73;;;4.30;;
19675;SDS011;39539;52.202;9.876;2023-04-28T04:32:32;6.07;;;4.70;;
19675;SDS011;39539;52.202;9.876;2023-04-28T04:34:57;7.22;;;4.75;;
19675;SDS011;39539;52.202;9.876;2023-04-28T04:37:23;5.05;;;3.97;;
19675;SDS011;39539;52.202;9.876;2023-04-28T04:39:48;4.90;;;4.43;;
19675;SDS011;39539;52.202;9.876;2023-04-28T04:42:13;8.18;;;4.43;;
19675;SDS011;39539;52.202;9.876;2023-04-28T04:44:39;6.20;;;4.75;;
19675;SDS011;39539;52.202;9.876;2023-04-28T04:47:04;6.35;;;4.45;;
19675;SDS011;39539;52.202;9.876;2023-04-28T04:49:30;6.78;;;5.10;;
19675;SDS011;39539;52.202;9.876;2023-04-28T04:51:55;5.28;;;4.78;;
19675;SDS011;39539;52.202;9.876;2023-04-28T04:54:21;6.80;;;4.75;;
19675;SDS011;39539;52.202;9.876;2023-04-28T04:56:46;14.52;;;5.70;;
19675;SDS011;39539;52.202;9.876;2023-04-28T04:59:11;5.72;;;4.90;;
19675;SDS011;39539;52.202;9.876;2023-04-28T05:01:37;6.13;;;5.15;;
19675;SDS011;39539;52.202;9.876;2023-04-28T05:04:02;5.13;;;4.68;;
19675;SDS011;39539;52.202;9.876;2023-04-28T05:06:28;7.88;;;5.38;;
19675;SDS011;39539;52.202;9.876;2023-04-28T05:08:53;5.40;;;4.85;;
19675;SDS011;39539;52.202;9.876;2023-04-28T05:11:20;6.03;;;4.95;;
19675;SDS011;39539;52.202;9.876;2023-04-28T05:13:46;6.13;;;5.05;;
19675;SDS011;39539;52.202;9.876;2023-04-28T05:16:11;6.25;;;5.15;;
19675;SDS011;39539;52.202;9.876;2023-04-28T05:18:36;6.13;;;5.55;;
19675;SDS011;39539;52.202;9.876;2023-04-28T05:21:02;7.28;;;5.18;;
19675;SDS011;39539;52.202;9.876;2023-04-28T05:23:27;5.68;;;5.18;;
19675;SDS011;39539;52.202;9.876;2023-04-28T05:25:53;6.65;;;5.30;;
19675;SDS011;39539;52.202;9.876;2023-04-28T05:28:19;6.63;;;5.88;;
19675;SDS011;39539;52.202;9.876;2023-04-28T05:30:44;5.68;;;5.00;;
19675;SDS011;39539;52.202;9.876;2023-04-28T05:33:10;7.18;;;5.93;;
19675;SDS011;39539;52.202;9.876;2023-04-28T05:35:35;6.43;;;5.63;;
19675;SDS011;39539;52.202;9.876;2023-04-28T05:38:01;7.30;;;5.95;;
19675;SDS011;39539;52.202;9.876;2023-04-28T05:40:27;7.47;;;5.82;;
19675;SDS011;39539;52.202;9.876;2023-04-28T05:42:53;6.15;;;5.55;;
19675;SDS011;39539;52.202;9.876;2023-04-28T05:45:18;6.72;;;5.57;;
19675;SDS011;39539;52.202;9.876;2023-04-28T05:47:43;6.43;;;5.53;;
19675;SDS011;39539;52.202;9.876;2023-04-28T05:50:09;7.90;;;5.72;;
19675;SDS011;39539;52.202;9.876;2023-04-28T05:52:35;6.07;;;5.55;;
19675;SDS011;39539;52.202;9.876;2023-04-28T05:55:00;8.07;;;5.93;;
19675;SDS011;39539;52.202;9.876;2023-04-28T05:57:25;8.23;;;5.72;;
19675;SDS011;39539;52.202;9.876;2023-04-28T05:59:51;6.07;;;5.53;;
19675;SDS011;39539;52.202;9.876;2023-04-28T06:02:16;6.25;;;5.65;;
19675;SDS011;39539;52.202;9.876;2023-04-28T06:04:42;7.60;;;5.68;;
19675;SDS011;39539;52.202;9.876;2023-04-28T06:07:08;7.97;;;7.18;;
19675;SDS011;39539;52.202;9.876;2023-04-28T06:09:34;7.32;;;6.38;;
19675;SDS011;39539;52.202;9.876;2023-04-28T06:12:00;8.18;;;5.55;;
19675;SDS011;39539;52.202;9.876;2023-04-28T06:14:27;7.22;;;6.03;;
19675;SDS011;39539;52.202;9.876;2023-04-28T06:16:53;10.77;;;5.95;;
19675;SDS011;39539;52.202;9.876;2023-04-28T06:19:18;6.57;;;5.97;;
19675;SDS011;39539;52.202;9.876;2023-04-28T06:21:44;7.50;;;6.78;;
19675;SDS011;39539;52.202;9.876;2023-04-28T06:24:10;10.40;;;6.30;;
19675;SDS011;39539;52.202;9.876;2023-04-28T06:26:36;9.60;;;5.90;;
19675;SDS011;39539;52.202;9.876;2023-04-28T06:29:01;8.00;;;6.38;;
19675;SDS011;39539;52.202;9.876;2023-04-28T06:31:27;7.07;;;6.35;;
19675;SDS011;39539;52.202;9.876;2023-04-28T06:33:53;7.90;;;6.50;;
19675;SDS011;39539;52.202;9.876;2023-04-28T06:36:18;7.13;;;6.43;;
19675;SDS011;39539;52.202;9.876;2023-04-28T06:38:44;7.47;;;6.78;;
19675;SDS011;39539;52.202;9.876;2023-04-28T06:41:10;8.93;;;6.75;;
19675;SDS011;39539;52.202;9.876;2023-04-28T06:43:35;10.20;;;6.53;;
19675;SDS011;39539;52.202;9.876;2023-04-28T06:46:01;7.82;;;7.13;;
19675;SDS011;39539;52.202;9.876;2023-04-28T06:48:27;8.63;;;6.78;;
19675;SDS011;39539;52.202;9.876;2023-04-28T06:50:52;7.65;;;6.90;;
19675;SDS011;39539;52.202;9.876;2023-04-28T06:53:18;7.78;;;7.03;;
19675;SDS011;39539;52.202;9.876;2023-04-28T06:55:43;8.20;;;7.30;;
19675;SDS011;39539;52.202;9.876;2023-04-28T06:58:10;7.20;;;6.60;;
19675;SDS011;39539;52.202;9.876;2023-04-28T07:00:35;11.05;;;7.38;;
19675;SDS011;39539;52.202;9.876;2023-04-28T07:03:01;7.75;;;7.05;;
19675;SDS011;39539;52.202;9.876;2023-04-28T07:05:26;8.18;;;7.38;;
19675;SDS011;39539;52.202;9.876;2023-04-28T07:07:52;8.23;;;7.43;;
19675;SDS011;39539;52.202;9.876;2023-04-28T07:10:18;7.72;;;7.13;;
19675;SDS011;39539;52.202;9.876;2023-04-28T07:12:43;7.72;;;7.13;;
19675;SDS011;39539;52.202;9.876;2023-04-28T07:15:09;9.43;;;7.40;;
19675;SDS011;39539;52.202;9.876;2023-04-28T07:17:35;7.90;;;7.10;;
19675;SDS011;39539;52.202;9.876;2023-04-28T07:20:00;7.50;;;7.00;;
19675;SDS011;39539;52.202;9.876;2023-04-28T07:22:26;7.85;;;7.00;;
19675;SDS011;39539;52.202;9.876;2023-04-28T07:24:51;7.97;;;7.28;;
19675;SDS011;39539;52.202;9.876;2023-04-28T07:27:17;8.02;;;7.30;;
19675;SDS011;39539;52.202;9.876;2023-04-28T07:29:42;7.72;;;6.78;;
19675;SDS011;39539;52.202;9.876;2023-04-28T07:32:08;8.15;;;7.38;;
19675;SDS011;39539;52.202;9.876;2023-04-28T07:34:34;7.40;;;6.72;;
19675;SDS011;39539;52.202;9.876;2023-04-28T07:37:00;7.88;;;7.03;;
19675;SDS011;39539;52.202;9.876;2023-04-28T07:39:26;8.00;;;7.20;;
19675;SDS011;39539;52.202;9.876;2023-04-28T07:41:52;7.93;;;7.32;;
19675;SDS011;39539;52.202;9.876;2023-04-28T07:44:19;8.07;;;7.20;;
19675;SDS011;39539;52.202;9.876;2023-04-28T07:46:44;8.07;;;7.10;;
19675;SDS011;39539;52.202;9.876;2023-04-28T07:49:09;7.72;;;6.38;;
19675;SDS011;39539;52.202;9.876;2023-04-28T07:51:35;7.03;;;6.35;;
19675;SDS011;39539;52.202;9.876;2023-04-28T07:54:00;7.43;;;6.72;;
19675;SDS011;39539;52.202;9.876;2023-04-28T07:56:26;7.53;;;6.90;;
19675;SDS011;39539;52.202;9.876;2023-04-28T07:58:51;7.95;;;7.25;;
19675;SDS011;39539;52.202;9.876;2023-04-28T08:01:17;8.95;;;6.85;;
19675;SDS011;39539;52.202;9.876;2023-04-28T08:03:43;7.45;;;6.85;;
19675;SDS011;39539;52.202;9.876;2023-04-28T08:06:08;7.93;;;7.22;;
19675;SDS011;39539;52.202;9.876;2023-04-28T08:08:34;7.68;;;6.50;;
19675;SDS011;39539;52.202;9.876;2023-04-28T08:11:00;7.57;;;6.88;;
19675;SDS011;39539;52.202;9.876;2023-04-28T08:13:25;8.15;;;7.35;;
19675;SDS011;39539;52.202;9.876;2023-04-28T08:15:52;7.55;;;6.80;;
19675;SDS011;39539;52.202;9.876;2023-04-28T08:18:20;7.45;;;6.90;;
19675;SDS011;39539;52.202;9.876;2023-04-28T08:20:46;7.88;;;7.10;;
19675;SDS011;39539;52.202;9.876;2023-04-28T08:23:13;7.82;;;7.13;;
19675;SDS011;39539;52.202;9.876;2023-04-28T08:25:38;8.23;;;7.53;;
19675;SDS011;39539;52.202;9.876;2023-04-28T08:28:04;8.38;;;7.57;;
19675;SDS011;39539;52.202;9.876;2023-04-28T08:30:30;8.05;;;7.35;;
19675;SDS011;39539;52.202;9.876;2023-04-28T08:32:56;8.15;;;7.47;;
19675;SDS011;39539;52.202;9.876;2023-04-28T08:35:22;7.70;;;6.97;;
19675;SDS011;39539;52.202;9.876;2023-04-28T08:37:47;8.02;;;7.43;;
19675;SDS011;39539;52.202;9.876;2023-04-28T08:40:13;8.77;;;8.07;;
19675;SDS011;39539;52.202;9.876;2023-04-28T08:42:40;8.35;;;7.68;;
19675;SDS011;39539;52.202;9.876;2023-04-28T08:45:06;8.68;;;7.88;;
19675;SDS011;39539;52.202;9.876;2023-04-28T08:47:36;9.05;;;7.22;;
19675;SDS011;39539;52.202;9.876;2023-04-28T08:50:07;7.97;;;7.18;;
19675;SDS011;39539;52.202;9.876;2023-04-28T08:52:39;7.70;;;7.00;;
19675;SDS011;39539;52.202;9.876;2023-04-28T08:55:07;7.72;;;7.03;;
19675;SDS011;39539;52.202;9.876;2023-04-28T08:57:37;8.30;;;7.38;;
19675;SDS011;39539;52.202;9.876;2023-04-28T09:00:07;8.30;;;7.53;;
19675;SDS011;39539;52.202;9.876;2023-04-28T09:02:33;8.70;;;7.78;;
19675;SDS011;39539;52.202;9.876;2023-04-28T09:05:03;8.48;;;7.78;;
19675;SDS011;39539;52.202;9.876;2023-04-28T09:07:32;9.88;;;7.70;;
19675;SDS011;39539;52.202;9.876;2023-04-28T09:10:39;8.52;;;7.88;;
19675;SDS011;39539;52.202;9.876;2023-04-28T09:12:47;8.80;;;8.10;;
19675;SDS011;39539;52.202;9.876;2023-04-28T09:15:24;8.30;;;7.60;;
19675;SDS011;39539;52.202;9.876;2023-04-28T09:18:09;9.65;;;8.57;;
19675;SDS011;39539;52.202;9.876;2023-04-28T09:20:38;9.43;;;8.00;;
19675;SDS011;39539;52.202;9.876;2023-04-28T09:23:17;9.07;;;8.02;;
19675;SDS011;39539;52.202;9.876;2023-04-28T09:28:29;8.90;;;8.10;;
19675;SDS011;39539;52.202;9.876;2023-04-28T09:30:55;9.15;;;7.85;;
19675;SDS011;39539;52.202;9.876;2023-04-28T09:33:21;9.00;;;8.20;;
19675;SDS011;39539;52.202;9.876;2023-04-28T09:35:47;8.32;;;7.63;;
19675;SDS011;39539;52.202;9.876;2023-04-28T09:38:15;8.55;;;7.85;;
19675;SDS011;39539;52.202;9.876;2023-04-28T09:43:36;8.70;;;7.93;;
19675;SDS011;39539;52.202;9.876;2023-04-28T09:46:03;8.35;;;7.53;;
19675;SDS011;39539;52.202;9.876;2023-04-28T09:48:30;10.88;;;8.02;;
19675;SDS011;39539;52.202;9.876;2023-04-28T09:50:59;8.45;;;7.68;;
19675;SDS011;39539;52.202;9.876;2023-04-28T09:53:26;8.27;;;7.57;;
19675;SDS011;39539;52.202;9.876;2023-04-28T09:55:52;8.98;;;8.18;;
19675;SDS011;39539;52.202;9.876;2023-04-28T09:58:20;8.32;;;7.63;;
19675;SDS011;39539;52.202;9.876;2023-04-28T10:00:48;7.63;;;6.93;;
19675;SDS011;39539;52.202;9.876;2023-04-28T10:03:17;8.43;;;7.53;;
19675;SDS011;39539;52.202;9.876;2023-04-28T10:05:48;8.50;;;7.65;;
19675;SDS011;39539;52.202;9.876;2023-04-28T10:08:15;8.73;;;7.90;;
19675;SDS011;39539;52.202;9.876;2023-04-28T10:10:40;9.32;;;8.35;;
19675;SDS011;39539;52.202;9.876;2023-04-28T10:13:08;7.88;;;7.25;;
19675;SDS011;39539;52.202;9.876;2023-04-28T10:15:33;8.20;;;7.40;;
19675;SDS011;39539;52.202;9.876;2023-04-28T10:18:01;8.43;;;7.70;;
19675;SDS011;39539;52.202;9.876;2023-04-28T10:20:28;8.50;;;7.80;;
19675;SDS011;39539;52.202;9.876;2023-04-28T10:25:41;8.77;;;7.63;;
19675;SDS011;39539;52.202;9.876;2023-04-28T10:28:08;8.70;;;7.85;;
19675;SDS011;39539;52.202;9.876;2023-04-28T10:30:34;8.90;;;8.00;;
19675;SDS011;39539;52.202;9.876;2023-04-28T10:35:42;7.93;;;7.25;;
19675;SDS011;39539;52.202;9.876;2023-04-28T10:38:10;8.48;;;7.45;;
19675;SDS011;39539;52.202;9.876;2023-04-28T10:40:45;9.18;;;7.80;;
19675;SDS011;39539;52.202;9.876;2023-04-28T10:43:13;8.25;;;7.55;;
19675;SDS011;39539;52.202;9.876;2023-04-28T10:56:23;10.35;;;9.48;;
19675;SDS011;39539;52.202;9.876;2023-04-28T10:58:54;9.88;;;8.98;;
19675;SDS011;39539;52.202;9.876;2023-04-28T11:03:49;10.43;;;9.40;;
19675;SDS011;39539;52.202;9.876;2023-04-28T11:06:22;10.85;;;10.02;;
19675;SDS011;39539;52.202;9.876;2023-04-28T11:09:02;10.30;;;9.30;;
19675;SDS011;39539;52.202;9.876;2023-04-28T11:11:36;10.82;;;9.90;;
19675;SDS011;39539;52.202;9.876;2023-04-28T11:16:48;11.00;;;10.07;;
19675;SDS011;39539;52.202;9.876;2023-04-28T11:19:19;10.77;;;9.77;;
19675;SDS011;39539;52.202;9.876;2023-04-28T11:21:46;9.95;;;9.15;;
19675;SDS011;39539;52.202;9.876;2023-04-28T11:24:13;10.68;;;9.77;;
19675;SDS011;39539;52.202;9.876;2023-04-28T11:26:40;11.25;;;10.20;;
19675;SDS011;39539;52.202;9.876;2023-04-28T11:29:06;11.02;;;10.10;;
19675;SDS011;39539;52.202;9.876;2023-04-28T11:31:34;10.40;;;9.57;;
19675;SDS011;39539;52.202;9.876;2023-04-28T11:36:34;10.18;;;9.18;;
19675;SDS011;39539;52.202;9.876;2023-04-28T11:39:04;9.75;;;8.85;;
19675;SDS011;39539;52.202;9.876;2023-04-28T11:41:32;10.68;;;9.57;;
19675;SDS011;39539;52.202;9.876;2023-04-28T11:44:00;10.20;;;9.20;;
19675;SDS011;39539;52.202;9.876;2023-04-28T11:46:33;9.73;;;8.93;;
19675;SDS011;39539;52.202;9.876;2023-04-28T11:49:02;10.10;;;9.07;;
19675;SDS011;39539;52.202;9.876;2023-04-28T11:51:36;9.18;;;8.32;;
19675;SDS011;39539;52.202;9.876;2023-04-28T11:54:03;10.77;;;9.68;;
19675;SDS011;39539;52.202;9.876;2023-04-28T11:56:41;11.20;;;10.07;;
19675;SDS011;39539;52.202;9.876;2023-04-28T11:59:07;11.02;;;10.05;;
19675;SDS011;39539;52.202;9.876;2023-04-28T12:01:44;10.90;;;9.80;;
19675;SDS011;39539;52.202;9.876;2023-04-28T12:04:24;11.05;;;10.05;;
19675;SDS011;39539;52.202;9.876;2023-04-28T12:07:24;10.93;;;9.82;;
19675;SDS011;39539;52.202;9.876;2023-04-28T12:12:36;11.77;;;10.88;;
19675;SDS011;39539;52.202;9.876;2023-04-28T12:15:06;11.20;;;10.10;;
19675;SDS011;39539;52.202;9.876;2023-04-28T12:17:36;10.95;;;9.95;;
19675;SDS011;39539;52.202;9.876;2023-04-28T12:20:04;11.73;;;10.70;;
19675;SDS011;39539;52.202;9.876;2023-04-28T12:22:42;12.40;;;11.40;;
19675;SDS011;39539;52.202;9.876;2023-04-28T12:25:11;12.30;;;11.30;;
19675;SDS011;39539;52.202;9.876;2023-04-28T12:27:37;11.88;;;10.98;;
19675;SDS011;39539;52.202;9.876;2023-04-28T12:30:26;11.07;;;10.05;;
19675;SDS011;39539;52.202;9.876;2023-04-28T12:32:54;11.07;;;9.93;;
19675;SDS011;39539;52.202;9.876;2023-04-28T12:35:21;12.38;;;11.38;;
19675;SDS011;39539;52.202;9.876;2023-04-28T12:37:47;12.23;;;11.20;;
19675;SDS011;39539;52.202;9.876;2023-04-28T12:40:12;12.60;;;11.50;;
19675;SDS011;39539;52.202;9.876;2023-04-28T12:42:38;12.55;;;11.45;;
19675;SDS011;39539;52.202;9.876;2023-04-28T12:45:04;11.52;;;10.57;;
19675;SDS011;39539;52.202;9.876;2023-04-28T12:47:31;12.68;;;11.55;;
19675;SDS011;39539;52.202;9.876;2023-04-28T12:49:56;12.20;;;11.30;;
19675;SDS011;39539;52.202;9.876;2023-04-28T12:52:22;12.35;;;11.20;;
19675;SDS011;39539;52.202;9.876;2023-04-28T12:54:47;11.43;;;10.52;;
19675;SDS011;39539;52.202;9.876;2023-04-28T12:57:13;11.38;;;10.35;;
19675;SDS011;39539;52.202;9.876;2023-04-28T12:59:40;11.93;;;10.80;;
19675;SDS011;39539;52.202;9.876;2023-04-28T13:02:06;9.85;;;9.05;;
19675;SDS011;39539;52.202;9.876;2023-04-28T13:04:31;8.43;;;7.75;;
19675;SDS011;39539;52.202;9.876;2023-04-28T13:06:57;9.57;;;8.60;;
19675;SDS011;39539;52.202;9.876;2023-04-28T13:09:23;7.93;;;7.32;;
19675;SDS011;39539;52.202;9.876;2023-04-28T13:11:50;8.88;;;8.10;;
19675;SDS011;39539;52.202;9.876;2023-04-28T13:14:17;10.32;;;9.52;;
19675;SDS011;39539;52.202;9.876;2023-04-28T13:16:43;9.98;;;9.23;;
19675;SDS011;39539;52.202;9.876;2023-04-28T13:19:09;9.02;;;8.20;;
19675;SDS011;39539;52.202;9.876;2023-04-28T13:21:38;8.73;;;7.85;;
19675;SDS011;39539;52.202;9.876;2023-04-28T13:24:05;9.00;;;8.18;;
19675;SDS011;39539;52.202;9.876;2023-04-28T13:26:31;8.73;;;8.02;;
19675;SDS011;39539;52.202;9.876;2023-04-28T13:28:57;9.05;;;8.27;;
19675;SDS011;39539;52.202;9.876;2023-04-28T13:31:22;8.52;;;7.72;;
19675;SDS011;39539;52.202;9.876;2023-04-28T13:33:48;9.55;;;8.70;;
19675;SDS011;39539;52.202;9.876;2023-04-28T13:36:13;8.60;;;7.75;;
19675;SDS011;39539;52.202;9.876;2023-04-28T13:38:40;8.55;;;7.80;;
19675;SDS011;39539;52.202;9.876;2023-04-28T13:41:05;8.85;;;8.05;;
19675;SDS011;39539;52.202;9.876;2023-04-28T13:43:31;7.50;;;6.90;;
19675;SDS011;39539;52.202;9.876;2023-04-28T13:45:57;8.85;;;8.10;;
19675;SDS011;39539;52.202;9.876;2023-04-28T13:48:22;8.10;;;7.35;;
19675;SDS011;39539;52.202;9.876;2023-04-28T13:50:49;9.82;;;8.82;;
19675;SDS011;39539;52.202;9.876;2023-04-28T13:53:15;8.68;;;8.00;;
19675;SDS011;39539;52.202;9.876;2023-04-28T13:55:41;8.52;;;7.93;;
19675;SDS011;39539;52.202;9.876;2023-04-28T13:58:06;9.13;;;8.32;;
19675;SDS011;39539;52.202;9.876;2023-04-28T14:00:35;9.52;;;8.63;;
19675;SDS011;39539;52.202;9.876;2023-04-28T14:03:01;9.10;;;8.40;;
19675;SDS011;39539;52.202;9.876;2023-04-28T14:05:27;9.50;;;8.70;;
19675;SDS011;39539;52.202;9.876;2023-04-28T14:07:53;9.73;;;8.82;;
19675;SDS011;39539;52.202;9.876;2023-04-28T14:10:20;9.60;;;8.85;;
19675;SDS011;39539;52.202;9.876;2023-04-28T14:12:46;9.95;;;9.30;;
19675;SDS011;39539;52.202;9.876;2023-04-28T14:15:11;11.05;;;10.05;;
19675;SDS011;39539;52.202;9.876;2023-04-28T14:17:40;10.40;;;9.60;;
19675;SDS011;39539;52.202;9.876;2023-04-28T14:20:06;11.25;;;10.35;;
19675;SDS011;39539;52.202;9.876;2023-04-28T14:22:32;11.27;;;10.27;;
19675;SDS011;39539;52.202;9.876;2023-04-28T14:24:57;11.60;;;10.70;;
19675;SDS011;39539;52.202;9.876;2023-04-28T14:27:23;12.18;;;11.18;;
19675;SDS011;39539;52.202;9.876;2023-04-28T14:29:48;12.30;;;11.20;;
19675;SDS011;39539;52.202;9.876;2023-04-28T14:32:14;12.82;;;11.57;;
19675;SDS011;39539;52.202;9.876;2023-04-28T14:34:40;12.18;;;11.27;;
19675;SDS011;39539;52.202;9.876;2023-04-28T14:37:06;11.55;;;10.63;;
19675;SDS011;39539;52.202;9.876;2023-04-28T14:39:32;12.10;;;11.10;;
19675;SDS011;39539;52.202;9.876;2023-04-28T14:41:57;12.00;;;10.90;;
19675;SDS011;39539;52.202;9.876;2023-04-28T14:44:22;12.40;;;10.95;;
19675;SDS011;39539;52.202;9.876;2023-04-28T14:46:48;13.38;;;12.15;;
19675;SDS011;39539;52.202;9.876;2023-04-28T14:49:14;12.90;;;11.80;;
19675;SDS011;39539;52.202;9.876;2023-04-28T14:51:39;13.05;;;12.05;;
19675;SDS011;39539;52.202;9.876;2023-04-28T14:54:04;13.10;;;12.00;;
19675;SDS011;39539;52.202;9.876;2023-04-28T14:56:29;13.05;;;11.98;;
19675;SDS011;39539;52.202;9.876;2023-04-28T14:58:55;12.23;;;11.02;;
19675;SDS011;39539;52.202;9.876;2023-04-28T15:01:20;11.60;;;10.60;;
19675;SDS011;39539;52.202;9.876;2023-04-28T15:03:46;11.68;;;10.70;;
19675;SDS011;39539;52.202;9.876;2023-04-28T15:06:11;10.75;;;9.88;;
19675;SDS011;39539;52.202;9.876;2023-04-28T15:08:37;11.20;;;10.30;;
19675;SDS011;39539;52.202;9.876;2023-04-28T15:11:04;12.18;;;10.95;;
19675;SDS011;39539;52.202;9.876;2023-04-28T15:13:30;11.32;;;10.50;;